.
WxDataArchive / Data Records for 2015-10-06
2015-10-05 October 2015 2015-10-07

Data Records for Tuesday, 06 October 2015

Time	Temp	Chill	HIndex	Humid	Dewpt	 Wind 	HiWind	WindDir	Rain 	Barom
-----	----	-----	------	-----	-----	------	------	-------	-----	-----
00:00	59.5	59.5	59.5	88	55.9	0	0	---	0.00	30.090 
00:05	59.3	59.3	59.3	88	55.7	0	0	---	0.00	30.090 
00:10	59.2	59.2	59.2	88	55.6	0	0	---	0.00	30.090 
00:15	59.0	59.0	59.0	88	55.4	0	0	---	0.00	30.083 
00:20	58.9	58.9	58.9	88	55.3	0	0	---	0.00	30.083 
00:25	58.9	58.9	58.9	88	55.3	0	0	---	0.00	30.083 
00:30	58.7	58.7	58.7	88	55.2	0	0	---	0.00	30.082 
00:35	58.7	58.7	58.7	88	55.2	0	0	---	0.00	30.082 
00:40	58.4	58.4	58.4	88	54.9	0	0	---	0.00	30.082 
00:45	58.3	58.3	58.3	89	55.1	0	0	---	0.00	30.086 
00:50	58.3	58.3	58.3	89	55.1	0	0	---	0.00	30.086 
00:55	58.1	58.1	58.1	89	54.9	0	0	---	0.00	30.086 
01:00	58.0	58.0	58.0	89	54.8	0	0	---	0.00	30.087 
01:05	57.8	57.8	57.8	89	54.6	0	0	---	0.00	30.087 
01:10	57.6	57.6	57.6	89	54.4	0	0	---	0.00	30.087 
01:15	57.5	57.5	57.5	90	54.6	0	0	---	0.00	30.079 
01:20	57.3	57.3	57.3	90	54.4	0	0	---	0.00	30.079 
01:25	57.2	57.2	57.2	90	54.3	0	0	---	0.00	30.079 
01:30	57.0	57.0	57.0	90	54.1	0	0	---	0.00	30.080 
01:35	57.0	57.0	57.0	90	54.1	0	0	---	0.00	30.080 
01:40	56.9	56.9	56.9	90	54.0	0	0	---	0.00	30.080 
01:45	56.9	56.9	56.9	90	54.0	0	0	---	0.00	30.079 
01:50	56.7	56.7	56.7	91	54.1	0	0	---	0.00	30.079 
01:55	56.6	56.6	56.6	91	54.0	0	0	---	0.00	30.079 
02:00	56.6	56.6	56.6	91	54.0	0	0	---	0.00	30.077 
02:05	56.5	56.5	56.5	91	53.9	0	0	---	0.00	30.077 
02:10	56.3	56.3	56.3	91	53.7	0	0	---	0.00	30.077 
02:15	56.3	56.3	56.3	91	53.7	0	0	---	0.00	30.074 
02:20	56.2	56.2	56.2	91	53.6	0	0	---	0.00	30.074 
02:25	56.2	56.2	56.2	91	53.6	0	0	---	0.00	30.074 
02:30	56.0	56.0	56.0	91	53.4	0	0	---	0.00	30.075 
02:35	56.0	56.0	56.0	92	53.7	0	0	---	0.00	30.075 
02:40	55.9	55.9	55.9	92	53.6	0	0	---	0.00	30.075 
02:45	55.9	55.9	55.9	92	53.6	0	0	---	0.00	30.069 
02:50	55.9	55.9	55.9	92	53.6	0	0	---	0.00	30.069 
02:55	55.7	55.7	55.7	92	53.4	0	0	---	0.00	30.069 
03:00	55.7	55.7	55.7	92	53.4	0	0	---	0.00	30.070 
03:05	55.6	55.6	55.6	92	53.3	0	0	---	0.00	30.070 
03:10	55.4	55.4	55.4	92	53.1	0	0	---	0.00	30.070 
03:15	55.4	55.4	55.4	92	53.1	0	0	---	0.00	30.067 
03:20	55.3	55.3	55.3	92	53.0	0	0	---	0.00	30.067 
03:25	55.1	55.1	55.1	92	52.8	0	0	---	0.00	30.067 
03:30	55.0	55.0	55.0	92	52.7	0	0	---	0.00	30.062 
03:35	55.0	55.0	55.0	92	52.7	0	0	---	0.00	30.062 
03:40	54.8	54.8	54.8	92	52.5	0	0	---	0.00	30.062 
03:45	54.7	54.7	54.7	92	52.4	0	0	---	0.00	30.064 
03:50	54.5	54.5	54.5	92	52.2	0	0	---	0.00	30.064 
03:55	54.5	54.5	54.5	92	52.2	0	0	---	0.00	30.064 
04:00	54.5	54.5	54.5	92	52.2	0	0	---	0.00	30.062 
04:05	54.5	54.5	54.5	93	52.5	0	0	---	0.00	30.062 
04:10	54.5	54.5	54.5	93	52.5	0	0	---	0.00	30.062 
04:15	54.7	54.7	54.7	93	52.7	0	0	---	0.00	30.060 
04:20	54.7	54.7	54.7	93	52.7	0	0	---	0.00	30.060 
04:25	54.7	54.7	54.7	93	52.7	0	0	---	0.00	30.060 
04:30	54.8	54.8	54.8	93	52.8	0	0	---	0.00	30.059 
04:35	55.0	55.0	55.0	93	53.0	0	0	---	0.00	30.059 
04:40	55.0	55.0	55.0	93	53.0	0	0	---	0.00	30.059 
04:45	55.1	55.1	55.1	93	53.1	0	0	---	0.00	30.057 
04:50	55.3	55.3	55.3	94	53.6	0	0	---	0.00	30.057 
04:55	55.4	55.4	55.4	94	53.7	0	0	---	0.00	30.057 
05:00	55.6	55.6	55.6	94	53.9	0	0	---	0.00	30.059 
05:05	55.6	55.6	55.6	93	53.6	0	0	---	0.00	30.059 
05:10	55.6	55.6	55.6	93	53.6	0	0	---	0.00	30.059 
05:15	55.6	55.6	55.6	93	53.6	0	0	---	0.00	30.060 
05:20	55.6	55.6	55.6	93	53.6	0	0	---	0.00	30.060 
05:25	55.6	55.6	55.6	93	53.6	0	0	---	0.00	30.060 
05:30	55.6	55.6	55.6	93	53.6	0	0	---	0.00	30.063 
05:35	55.6	55.6	55.6	93	53.6	0	0	---	0.00	30.063 
05:40	55.4	55.4	55.4	93	53.4	0	0	---	0.00	30.063 
05:45	55.4	55.4	55.4	93	53.4	0	0	---	0.00	30.063 
05:50	55.4	55.4	55.4	93	53.4	0	0	---	0.00	30.063 
05:55	55.4	55.4	55.4	93	53.4	0	0	---	0.00	30.063 
06:00	55.4	55.4	55.4	93	53.4	0	0	---	0.00	30.065 
06:05	55.3	55.3	55.3	93	53.3	0	0	---	0.00	30.065 
06:10	55.3	55.3	55.3	93	53.3	0	0	---	0.00	30.065 
06:15	55.1	55.1	55.1	93	53.1	0	0	---	0.00	30.066 
06:20	55.1	55.1	55.1	93	53.1	0	0	---	0.00	30.066 
06:25	55.0	55.0	55.0	93	53.0	0	0	---	0.00	30.066 
06:30	55.0	55.0	55.0	94	53.3	0	0	---	0.00	30.072 
06:35	54.8	54.8	54.8	94	53.1	0	0	---	0.00	30.072 
06:40	54.8	54.8	54.8	94	53.1	0	0	---	0.00	30.072 
06:45	54.8	54.8	54.8	94	53.1	0	0	---	0.00	30.074 
06:50	54.7	54.7	54.7	94	53.0	0	0	---	0.00	30.074 
06:55	54.7	54.7	54.7	94	53.0	0	0	---	0.00	30.074 
07:00	54.7	54.7	54.7	94	53.0	0	0	---	0.00	30.071 
07:05	54.7	54.7	54.7	94	53.0	0	0	---	0.00	30.071 
07:10	54.8	54.8	54.8	94	53.1	0	0	---	0.00	30.071 
07:15	55.0	55.0	55.0	94	53.3	0	0	---	0.00	30.081 
07:20	55.1	55.1	55.1	94	53.4	0	1	68	0.00	30.081 
07:25	55.3	55.3	55.3	94	53.6	0	0	---	0.00	30.081 
07:30	55.3	55.3	55.3	94	53.6	0	0	---	0.00	30.081 
07:35	55.3	55.3	55.3	94	53.6	0	0	---	0.00	30.081 
07:40	55.4	55.4	55.4	94	53.7	0	0	---	0.00	30.081 
07:45	55.4	55.4	55.4	94	53.7	0	0	---	0.00	30.083 
07:50	55.4	55.4	55.4	94	53.7	0	1	68	0.00	30.083 
07:55	55.4	55.4	55.4	94	53.7	0	2	68	0.00	30.083 
08:00	55.4	55.4	55.4	95	54.0	0	0	---	0.00	30.095 
08:05	55.4	55.4	55.4	95	54.0	0	0	---	0.00	30.095 
08:10	55.4	55.4	55.4	95	54.0	0	1	68	0.00	30.095 
08:15	55.6	55.6	55.6	95	54.2	0	1	68	0.00	30.099 
08:20	55.6	55.6	55.6	95	54.2	0	1	68	0.00	30.099 
08:25	55.6	55.6	55.6	95	54.2	0	1	68	0.00	30.099 
08:30	55.6	55.6	55.6	95	54.2	0	1	68	0.00	30.101 
08:35	55.6	55.6	55.6	95	54.2	0	0	---	0.00	30.101 
08:40	55.7	55.7	55.7	95	54.3	0	2	68	0.00	30.101 
08:45	55.7	55.7	55.7	95	54.3	1	3	68	0.00	30.100 
08:50	55.7	55.7	55.7	95	54.3	0	1	68	0.00	30.100 
08:55	55.9	55.9	55.9	95	54.5	0	2	68	0.00	30.100 
09:00	55.7	55.7	55.7	95	54.3	0	0	---	0.00	30.111 
09:05	55.7	55.7	55.7	95	54.3	0	0	---	0.00	30.111 
09:10	55.7	55.7	55.7	95	54.3	0	3	68	0.00	30.111 
09:15	55.7	55.7	55.7	95	54.3	0	2	68	0.00	30.115 
09:20	55.7	55.7	55.7	96	54.6	0	2	68	0.00	30.115 
09:25	55.9	55.9	55.9	96	54.8	0	0	---	0.00	30.115 
09:30	55.9	55.9	55.9	96	54.8	0	1	68	0.00	30.115 
09:35	55.9	55.9	55.9	96	54.8	0	1	68	0.00	30.115 
09:40	56.0	56.0	56.0	96	54.9	0	2	68	0.00	30.115 
09:45	56.0	56.0	56.0	96	54.9	0	2	68	0.00	30.115 
09:50	56.2	56.2	56.2	96	55.1	0	2	68	0.00	30.115 
09:55	56.2	56.2	56.2	96	55.1	0	1	68	0.00	30.115 
10:00	56.2	56.2	56.2	96	55.1	0	2	68	0.00	30.117 
10:05	56.2	56.2	56.2	96	55.1	0	1	68	0.00	30.117 
10:10	56.3	56.3	56.3	96	55.2	0	2	68	0.00	30.117 
10:15	56.5	56.5	56.5	96	55.4	0	3	68	0.00	30.121 
10:20	56.5	56.5	56.5	96	55.4	0	2	68	0.00	30.121 
10:25	56.7	56.7	56.7	96	55.6	0	1	68	0.00	30.121 
10:30	56.7	56.7	56.7	95	55.3	0	2	68	0.00	30.123 
10:35	56.7	56.7	56.7	95	55.3	0	0	---	0.00	30.123 
10:40	56.9	56.9	56.9	95	55.5	0	1	68	0.00	30.123 
10:45	56.9	56.9	56.9	95	55.5	0	0	---	0.00	30.121 
10:50	56.9	56.9	56.9	95	55.5	0	0	---	0.00	30.121 
10:55	56.9	56.9	56.9	95	55.5	0	2	68	0.00	30.121 
11:00	56.9	56.9	56.9	95	55.5	0	2	68	0.00	30.117 
11:05	57.2	57.2	57.2	95	55.8	0	1	68	0.00	30.117 
11:10	57.3	57.3	57.3	95	55.9	0	1	68	0.00	30.117 
11:15	57.5	57.5	57.5	95	56.1	0	1	68	0.00	30.121 
11:20	57.5	57.5	57.5	94	55.8	0	2	68	0.00	30.121 
11:25	57.6	57.6	57.6	94	55.9	0	2	68	0.00	30.121 
11:30	57.6	57.6	57.6	94	55.9	0	2	68	0.00	30.116 
11:35	58.0	58.0	58.0	94	56.3	1	3	68	0.00	30.116 
11:40	58.0	58.0	58.0	93	56.0	1	3	68	0.00	30.116 
11:45	58.1	58.1	58.1	93	56.1	0	2	68	0.00	30.116 
11:50	58.4	58.4	58.4	93	56.4	0	3	68	0.00	30.116 
11:55	58.6	58.6	58.6	93	56.6	0	2	68	0.00	30.116 
12:00	58.6	58.6	58.6	92	56.3	0	2	68	0.00	30.116 
12:05	58.7	58.7	58.7	92	56.4	0	0	---	0.00	30.116 
12:10	59.0	59.0	59.0	92	56.7	0	1	68	0.00	30.116 
12:15	59.5	59.5	59.5	91	56.9	0	3	68	0.00	30.117 
12:20	59.8	59.8	59.8	91	57.2	0	2	68	0.00	30.117 
12:25	59.9	59.9	59.9	90	57.0	0	2	68	0.00	30.117 
12:30	59.9	59.9	59.9	89	56.6	0	1	68	0.00	30.112 
12:35	59.9	59.9	59.9	89	56.6	0	1	68	0.00	30.112 
12:40	59.9	59.9	59.9	88	56.3	0	2	68	0.00	30.112 
12:45	60.1	60.1	60.1	88	56.5	0	2	68	0.00	30.108 
12:50	60.1	60.1	60.1	88	56.5	0	1	68	0.00	30.108 
12:55	60.5	60.5	60.5	88	56.9	0	1	68	0.00	30.108 
13:00	60.7	60.7	60.7	87	56.8	0	2	68	0.00	30.105 
13:05	60.9	60.9	60.9	87	57.0	0	0	---	0.00	30.105 
13:10	61.2	61.2	61.2	86	57.0	0	1	68	0.00	30.105 
13:15	61.5	61.5	61.5	86	57.3	0	2	68	0.00	30.103 
13:20	61.8	61.8	61.8	85	57.2	1	3	68	0.00	30.103 
13:25	62.1	62.1	62.1	85	57.5	1	4	315	0.00	30.103 
13:30	62.4	62.4	62.4	84	57.5	1	2	90	0.00	30.103 
13:35	62.9	62.9	62.9	83	57.7	0	2	315	0.00	30.103 
13:40	63.2	63.2	63.2	82	57.6	0	2	315	0.00	30.103 
13:45	63.4	63.4	63.4	81	57.5	0	3	338	0.00	30.099 
13:50	63.4	63.4	63.4	81	57.5	0	2	338	0.00	30.099 
13:55	63.4	63.4	63.4	80	57.1	0	2	338	0.00	30.099 
14:00	63.5	63.5	63.5	80	57.2	0	1	338	0.00	30.095 
14:05	63.9	63.9	63.9	81	57.9	0	1	338	0.00	30.095 
14:10	64.5	64.5	64.5	79	57.8	0	3	45	0.00	30.095 
14:15	65.2	65.2	65.2	79	58.5	0	2	45	0.00	30.084 
14:20	65.5	65.5	65.5	77	58.1	1	4	45	0.00	30.084 
14:25	65.6	65.6	65.6	76	57.8	1	3	68	0.00	30.084 
14:30	66.1	66.1	66.1	77	58.7	0	2	68	0.00	30.078 
14:35	66.3	66.3	66.3	76	58.5	1	3	68	0.00	30.078 
14:40	66.4	66.4	66.4	75	58.2	0	3	68	0.00	30.078 
14:45	66.4	66.4	66.4	75	58.2	0	3	68	0.00	30.070 
14:50	66.6	66.6	66.6	74	58.0	0	2	68	0.00	30.070 
14:55	66.8	66.8	66.8	73	57.9	0	2	68	0.00	30.070 
15:00	66.9	66.9	66.9	73	58.0	0	2	68	0.00	30.064 
15:05	67.4	67.4	67.4	74	58.8	0	2	68	0.00	30.064 
15:10	67.8	67.8	67.8	73	58.8	0	2	68	0.00	30.064 
15:15	68.3	68.3	68.3	72	58.9	0	2	68	0.00	30.057 
15:20	68.8	68.8	68.8	73	59.8	0	0	---	0.00	30.057 
15:25	69.1	69.1	69.1	69	58.5	0	2	68	0.00	30.057 
15:30	69.1	69.1	69.1	70	58.9	0	2	68	0.00	30.051 
15:35	69.6	69.6	69.6	70	59.4	0	2	68	0.00	30.051 
15:40	69.9	69.9	69.9	68	58.8	0	2	68	0.00	30.051 
15:45	70.1	70.1	70.1	69	59.4	0	2	68	0.00	30.048 
15:50	69.9	69.9	69.9	69	59.3	0	2	68	0.00	30.048 
15:55	69.8	69.8	69.8	69	59.2	0	1	68	0.00	30.048 
16:00	69.8	69.8	69.8	69	59.2	0	1	68	0.00	30.046 
16:05	69.8	69.8	69.8	69	59.2	0	2	68	0.00	30.046 
16:10	69.8	69.8	69.8	69	59.2	0	3	112	0.00	30.046 
16:15	69.6	69.6	69.6	69	59.0	0	1	112	0.00	30.045 
16:20	69.6	69.6	69.6	69	59.0	1	3	112	0.00	30.045 
16:25	69.3	69.3	69.3	70	59.1	0	2	112	0.00	30.045 
16:30	69.3	69.3	69.3	70	59.1	0	1	112	0.00	30.047 
16:35	69.3	69.3	69.3	71	59.5	0	0	---	0.00	30.047 
16:40	69.3	69.3	69.3	69	58.7	0	2	112	0.00	30.047 
16:45	69.3	69.3	69.3	70	59.1	0	1	112	0.00	30.051 
16:50	69.3	69.3	69.3	70	59.1	0	2	112	0.00	30.051 
16:55	69.1	69.1	69.1	70	58.9	0	2	112	0.00	30.051 
17:00	69.1	69.1	69.1	70	58.9	0	3	112	0.00	30.048 
17:05	69.1	69.1	69.1	70	58.9	0	0	---	0.00	30.048 
17:10	68.9	68.9	68.9	70	58.7	0	1	112	0.00	30.048 
17:15	68.9	68.9	68.9	70	58.7	0	0	---	0.00	30.045 
17:20	68.9	68.9	68.9	70	58.7	0	1	112	0.00	30.045 
17:25	68.9	68.9	68.9	70	58.7	0	0	---	0.00	30.045 
17:30	69.1	69.1	69.1	70	58.9	0	0	---	0.00	30.042 
17:35	69.1	69.1	69.1	69	58.5	0	1	112	0.00	30.042 
17:40	69.3	69.3	69.3	69	58.7	0	0	---	0.00	30.042 
17:45	69.3	69.3	69.3	70	59.1	0	1	112	0.00	30.036 
17:50	69.3	69.3	69.3	69	58.7	0	2	112	0.00	30.036 
17:55	69.3	69.3	69.3	70	59.1	0	1	112	0.00	30.036 
18:00	69.4	69.4	69.4	70	59.2	0	1	112	0.00	30.035 
18:05	69.4	69.4	69.4	69	58.8	0	1	112	0.00	30.035 
18:10	69.4	69.4	69.4	70	59.2	0	0	---	0.00	30.035 
18:15	69.3	69.3	69.3	70	59.1	0	0	---	0.00	30.033 
18:20	69.3	69.3	69.3	69	58.7	0	0	---	0.00	30.033 
18:25	69.3	69.3	69.3	69	58.7	0	1	112	0.00	30.033 
18:30	69.3	69.3	69.3	70	59.1	0	0	---	0.00	30.032 
18:35	68.9	68.9	68.9	70	58.7	0	0	---	0.00	30.032 
18:40	68.8	68.8	68.8	70	58.6	0	0	---	0.00	30.032 
18:45	68.6	68.6	68.6	71	58.8	0	0	---	0.00	30.035 
18:50	68.4	68.4	68.4	72	59.0	0	0	---	0.00	30.035 
18:55	68.3	68.3	68.3	73	59.3	0	0	---	0.00	30.035 
19:00	67.9	67.9	67.9	73	58.9	0	0	---	0.00	30.038 
19:05	67.8	67.8	67.8	74	59.2	0	0	---	0.00	30.038 
19:10	67.6	67.6	67.6	75	59.4	0	0	---	0.00	30.038 
19:15	67.3	67.3	67.3	75	59.1	0	0	---	0.00	30.038 
19:20	67.1	67.1	67.1	76	59.3	0	0	---	0.00	30.038 
19:25	66.8	66.8	66.8	76	59.0	0	1	112	0.00	30.038 
19:30	66.6	66.6	66.6	77	59.2	0	0	---	0.00	30.041 
19:35	66.6	66.6	66.6	76	58.8	0	1	112	0.00	30.041 
19:40	66.6	66.6	66.6	77	59.2	0	1	112	0.00	30.041 
19:45	66.4	66.4	66.4	77	59.0	0	0	---	0.00	30.047 
19:50	66.4	66.4	66.4	77	59.0	0	0	---	0.00	30.047 
19:55	66.3	66.3	66.3	78	59.2	0	0	---	0.00	30.047 
20:00	66.1	66.1	66.1	78	59.0	0	0	---	0.00	30.047 
20:05	66.1	66.1	66.1	78	59.0	0	0	---	0.00	30.047 
20:10	66.1	66.1	66.1	78	59.0	0	1	112	0.00	30.047 
20:15	66.3	66.3	66.3	78	59.2	0	1	112	0.00	30.048 
20:20	66.3	66.3	66.3	78	59.2	0	3	315	0.00	30.048 
20:25	66.3	66.3	66.3	78	59.2	1	3	315	0.00	30.048 
20:30	66.1	66.1	66.1	78	59.0	2	4	315	0.00	30.049 
20:35	66.0	66.0	66.0	78	58.9	1	3	315	0.00	30.049 
20:40	65.8	65.8	65.8	79	59.1	0	1	315	0.00	30.049 
20:45	65.6	65.6	65.6	79	58.9	1	3	315	0.00	30.055 
20:50	65.5	65.5	65.5	79	58.8	1	5	315	0.00	30.055 
20:55	65.3	65.3	65.3	80	59.0	0	1	315	0.00	30.055 
21:00	65.2	65.2	65.2	80	58.9	0	2	315	0.00	30.061 
21:05	65.0	65.0	65.0	80	58.7	1	5	315	0.00	30.061 
21:10	64.8	64.8	64.8	81	58.8	0	0	---	0.00	30.061 
21:15	64.7	64.7	64.7	81	58.7	0	1	292	0.00	30.061 
21:20	64.5	64.5	64.5	81	58.5	0	1	292	0.00	30.061 
21:25	64.3	64.3	64.3	82	58.7	0	0	---	0.00	30.061 
21:30	64.2	64.2	64.2	82	58.6	0	0	---	0.00	30.052 
21:35	64.0	64.0	64.0	82	58.4	0	0	---	0.00	30.052 
21:40	63.9	63.9	63.9	83	58.6	0	0	---	0.00	30.052 
21:45	63.7	63.7	63.7	83	58.4	0	0	---	0.00	30.051 
21:50	63.5	63.5	63.5	83	58.2	0	0	---	0.00	30.051 
21:55	63.2	63.2	63.2	84	58.3	0	0	---	0.00	30.051 
22:00	63.1	63.1	63.1	84	58.2	0	0	---	0.00	30.052 
22:05	62.7	62.7	62.7	84	57.8	0	0	---	0.00	30.052 
22:10	62.6	62.6	62.6	85	58.0	0	2	292	0.00	30.052 
22:15	62.4	62.4	62.4	85	57.8	0	2	292	0.00	30.056 
22:20	62.1	62.1	62.1	86	57.9	0	1	292	0.00	30.056 
22:25	62.0	62.0	62.0	86	57.8	0	1	292	0.00	30.056 
22:30	61.6	61.6	61.6	86	57.4	0	0	---	0.00	30.061 
22:35	61.5	61.5	61.5	87	57.6	0	0	---	0.00	30.061 
22:40	61.3	61.3	61.3	87	57.4	0	0	---	0.00	30.061 
22:45	61.0	61.0	61.0	87	57.1	0	1	292	0.00	30.062 
22:50	60.9	60.9	60.9	88	57.3	0	0	---	0.00	30.062 
22:55	60.7	60.7	60.7	88	57.1	0	0	---	0.00	30.062 
23:00	60.5	60.5	60.5	88	56.9	0	0	---	0.00	30.065 
23:05	60.4	60.4	60.4	88	56.8	0	0	---	0.00	30.065 
23:10	60.1	60.1	60.1	89	56.8	0	0	---	0.00	30.065 
23:15	59.9	59.9	59.9	89	56.6	0	0	---	0.00	30.066 
23:20	59.8	59.8	59.8	89	56.5	0	0	---	0.00	30.066 
23:25	59.6	59.6	59.6	89	56.4	0	0	---	0.00	30.066 
23:30	59.5	59.5	59.5	90	56.6	0	0	---	0.00	30.066 
23:35	59.3	59.3	59.3	90	56.4	0	0	---	0.00	30.066 
23:40	59.3	59.3	59.3	90	56.4	0	0	---	0.00	30.066 
23:45	59.0	59.0	59.0	90	56.1	0	0	---	0.00	30.067 
23:50	58.9	58.9	58.9	90	56.0	0	0	---	0.00	30.067 
23:55	58.7	58.7	58.7	91	56.1	0	0	---	0.00	30.067 

CoCoRaHS
IN-AL-39
A2 Web Hosting
Creative Commons License
GoDaddy
search engine by freefind advanced

loaded 2018-11-19 20:01:12 • last modified 2010-11-18 10:43:29
Privacy PolicyDisclaimer
• wx.awcolley.com is powered by PmWiki v.2002016 •
• all content (unless otherwise noted) © 2018 A W Colley